createdAt,value
2023-05-05T00:00:27.565Z,60.91
2023-05-05T00:00:27.899Z,60.91
2023-05-05T00:00:28.105Z,60.91
2023-05-05T00:00:28.320Z,60.91
2023-05-05T00:00:28.583Z,60.91
2023-05-05T00:00:29.035Z,60.91
2023-05-05T00:01:27.625Z,61.11
2023-05-05T00:01:27.986Z,61.11
2023-05-05T00:01:28.194Z,61.11
2023-05-05T00:01:28.407Z,61.11
2023-05-05T00:01:28.616Z,61.11
2023-05-05T00:01:29.117Z,61.11
2023-05-05T00:02:27.863Z,61.31
2023-05-05T00:02:28.149Z,61.31
2023-05-05T00:02:28.381Z,61.31
2023-05-05T00:02:28.624Z,61.31
2023-05-05T00:02:28.919Z,61.31
2023-05-05T00:02:29.202Z,61.31
2023-05-05T00:05:56.215Z,61.11
2023-05-05T00:05:56.401Z,61.11
2023-05-05T00:05:56.615Z,61.11
2023-05-05T00:05:56.836Z,61.11
2023-05-05T00:05:57.104Z,61.11
2023-05-05T00:05:57.384Z,61.11
2023-05-05T00:06:56.218Z,61.21
2023-05-05T00:06:56.418Z,61.21
2023-05-05T00:06:56.629Z,61.21
2023-05-05T00:06:56.838Z,61.21
2023-05-05T00:06:57.054Z,61.21
2023-05-05T00:06:57.409Z,61.21
2023-05-05T00:07:56.333Z,61.31
2023-05-05T00:07:56.534Z,61.31
2023-05-05T00:07:56.746Z,61.31
2023-05-05T00:07:56.952Z,61.31
2023-05-05T00:07:57.161Z,61.31
2023-05-05T00:07:57.507Z,61.31
2023-05-05T00:08:56.410Z,61.21
2023-05-05T00:08:56.615Z,61.21
2023-05-05T00:08:56.805Z,61.21
2023-05-05T00:08:57.030Z,61.21
2023-05-05T00:08:57.220Z,61.11
2023-05-05T00:08:57.587Z,61.21
2023-05-05T00:09:56.404Z,61.34
2023-05-05T00:09:56.785Z,61.31
2023-05-05T00:09:56.936Z,61.34
2023-05-05T00:09:57.164Z,61.24
2023-05-05T00:09:57.352Z,61.34
2023-05-05T00:09:57.701Z,61.34
2023-05-05T00:10:56.404Z,61.24
2023-05-05T00:10:56.815Z,61.24
2023-05-05T00:10:56.979Z,61.24
2023-05-05T00:10:57.194Z,61.24
2023-05-05T00:10:57.553Z,61.24
2023-05-05T00:10:57.859Z,61.24
2023-05-05T00:11:56.536Z,61.04
2023-05-05T00:11:56.882Z,61.04
2023-05-05T00:11:57.073Z,61.04
2023-05-05T00:11:57.282Z,61.04
2023-05-05T00:11:57.491Z,61.04
2023-05-05T00:11:57.993Z,61.04
2023-05-05T00:12:56.731Z,61.14
2023-05-05T00:12:56.986Z,61.14
2023-05-05T00:12:57.194Z,61.14
2023-05-05T00:12:57.428Z,61.14
2023-05-05T00:12:57.719Z,61.14
2023-05-05T00:12:58.044Z,61.14
2023-05-05T00:13:56.649Z,60.93
2023-05-05T00:13:56.992Z,60.93
2023-05-05T00:13:57.205Z,60.93
2023-05-05T00:13:57.421Z,60.93
2023-05-05T00:13:57.755Z,60.93
2023-05-05T00:13:58.160Z,60.93
2023-05-05T00:14:56.759Z,60.63
2023-05-05T00:14:57.147Z,60.63
2023-05-05T00:14:57.359Z,60.73
2023-05-05T00:14:57.570Z,60.73
2023-05-05T00:14:57.775Z,60.73
2023-05-05T00:14:58.303Z,60.63
2023-05-05T00:15:56.794Z,60.93
2023-05-05T00:15:57.274Z,60.93
2023-05-05T00:15:57.494Z,60.93
2023-05-05T00:15:57.714Z,60.93
2023-05-05T00:15:57.915Z,60.83
2023-05-05T00:15:58.407Z,60.93
2023-05-05T00:16:56.945Z,60.32
2023-05-05T00:16:57.401Z,60.32
2023-05-05T00:16:57.619Z,60.32
2023-05-05T00:16:57.887Z,60.32
2023-05-05T00:16:58.124Z,60.32
2023-05-05T00:16:58.482Z,60.32
2023-05-05T00:17:56.938Z,61.14
2023-05-05T00:17:57.470Z,61.14
2023-05-05T00:17:57.705Z,61.14
2023-05-05T00:17:58.003Z,61.14
2023-05-05T00:17:58.232Z,61.14
2023-05-05T00:17:58.622Z,61.14
2023-05-05T00:18:56.986Z,61.65
2023-05-05T00:18:57.496Z,61.65
2023-05-05T00:18:57.702Z,61.54
2023-05-05T00:18:57.908Z,61.54
2023-05-05T00:18:58.253Z,61.54
2023-05-05T00:18:58.601Z,61.54
2023-05-05T00:19:57.071Z,61.65
2023-05-05T00:19:57.548Z,61.65
2023-05-05T00:19:57.787Z,61.65
2023-05-05T00:19:57.982Z,61.65
2023-05-05T00:19:58.330Z,61.65
2023-05-05T00:19:58.683Z,61.65
2023-05-05T00:20:57.101Z,61.75
2023-05-05T00:20:57.619Z,61.75
2023-05-05T00:20:57.832Z,61.75
2023-05-05T00:20:58.057Z,61.75
2023-05-05T00:20:58.409Z,61.75
2023-05-05T00:20:58.739Z,61.75
2023-05-05T00:21:57.227Z,61.34
2023-05-05T00:21:57.725Z,61.34
2023-05-05T00:21:58.003Z,61.34
2023-05-05T00:21:58.212Z,61.34
2023-05-05T00:21:58.590Z,61.44
2023-05-05T00:21:58.825Z,61.34
2023-05-05T00:22:57.283Z,61.24
2023-05-05T00:22:57.778Z,61.24
2023-05-05T00:22:58.067Z,61.24
2023-05-05T00:22:58.274Z,61.24
2023-05-05T00:22:58.638Z,61.24
2023-05-05T00:22:58.872Z,61.24
2023-05-05T00:23:57.303Z,61.44
2023-05-05T00:23:57.819Z,61.44
2023-05-05T00:23:58.079Z,61.44
2023-05-05T00:23:58.298Z,61.44
2023-05-05T00:23:58.647Z,61.44
2023-05-05T00:23:58.948Z,61.44
2023-05-05T00:24:57.429Z,61.44
2023-05-05T00:24:58.003Z,61.44
2023-05-05T00:24:58.187Z,61.44
2023-05-05T00:24:58.424Z,61.44
2023-05-05T00:24:58.771Z,61.44
2023-05-05T00:24:59.095Z,61.44
2023-05-05T00:25:57.557Z,61.37
2023-05-05T00:25:58.133Z,61.37
2023-05-05T00:25:58.309Z,61.37
2023-05-05T00:25:58.550Z,61.37
2023-05-05T00:25:58.789Z,61.37
2023-05-05T00:25:59.212Z,61.37
2023-05-05T00:26:57.646Z,61.47
2023-05-05T00:26:58.228Z,61.47
2023-05-05T00:26:58.446Z,61.47
2023-05-05T00:26:58.638Z,61.37
2023-05-05T00:26:58.862Z,61.37
2023-05-05T00:26:59.317Z,61.47
2023-05-05T00:27:57.731Z,61.88
2023-05-05T00:27:58.221Z,61.98
2023-05-05T00:27:58.430Z,61.98
2023-05-05T00:27:58.639Z,61.98
2023-05-05T00:27:58.900Z,61.98
2023-05-05T00:27:59.403Z,61.98
2023-05-05T00:28:57.814Z,61.88
2023-05-05T00:28:58.322Z,61.88
2023-05-05T00:28:58.499Z,61.88
2023-05-05T00:28:58.720Z,61.88
2023-05-05T00:28:58.924Z,61.88
2023-05-05T00:28:59.407Z,61.88
2023-05-05T00:29:57.917Z,61.57
2023-05-05T00:29:58.418Z,61.57
2023-05-05T00:29:58.612Z,61.57
2023-05-05T00:29:58.822Z,61.57
2023-05-05T00:29:59.035Z,61.57
2023-05-05T00:29:59.497Z,61.57
2023-05-05T00:30:57.954Z,61.98
2023-05-05T00:30:58.479Z,61.98
2023-05-05T00:30:58.702Z,61.98
2023-05-05T00:30:58.972Z,61.98
2023-05-05T00:30:59.227Z,61.98
2023-05-05T00:30:59.684Z,61.98
2023-05-05T00:31:58.003Z,61.78
2023-05-05T00:31:58.533Z,61.78
2023-05-05T00:31:58.732Z,61.68
2023-05-05T00:31:58.984Z,61.68
2023-05-05T00:31:59.224Z,61.68
2023-05-05T00:31:59.770Z,61.78
2023-05-05T00:33:22.813Z,62.08
2023-05-05T00:33:23.011Z,62.08
2023-05-05T00:33:23.248Z,62.08
2023-05-05T00:33:23.461Z,62.08
2023-05-05T00:33:23.724Z,62.08
2023-05-05T00:33:23.963Z,62.08
2023-05-05T00:34:22.812Z,61.78
2023-05-05T00:34:23.030Z,61.78
2023-05-05T00:34:23.222Z,61.78
2023-05-05T00:34:23.451Z,61.78
2023-05-05T00:34:23.809Z,61.78
2023-05-05T00:34:24.016Z,61.78
2023-05-05T00:35:22.902Z,61.68
2023-05-05T00:35:23.114Z,61.68
2023-05-05T00:35:23.320Z,61.68
2023-05-05T00:35:23.532Z,61.68
2023-05-05T00:35:23.915Z,61.68
2023-05-05T00:35:24.131Z,61.68
2023-05-05T00:36:22.973Z,61.57
2023-05-05T00:36:23.176Z,61.57
2023-05-05T00:36:23.399Z,61.57
2023-05-05T00:36:23.595Z,61.57
2023-05-05T00:36:23.970Z,61.57
2023-05-05T00:36:24.171Z,61.57
2023-05-05T00:37:23.004Z,61.68
2023-05-05T00:37:23.205Z,61.68
2023-05-05T00:37:23.417Z,61.68
2023-05-05T00:37:23.624Z,61.68
2023-05-05T00:37:23.971Z,61.68
2023-05-05T00:37:24.179Z,61.68
2023-05-05T00:38:23.078Z,61.27
2023-05-05T00:38:23.289Z,61.27
2023-05-05T00:38:23.502Z,61.27
2023-05-05T00:38:23.712Z,61.27
2023-05-05T00:38:24.065Z,61.27
2023-05-05T00:38:24.274Z,61.27
2023-05-05T00:39:23.115Z,60.76
2023-05-05T00:39:23.336Z,60.76
2023-05-05T00:39:23.545Z,60.76
2023-05-05T00:39:23.746Z,60.76
2023-05-05T00:39:24.118Z,60.76
2023-05-05T00:39:24.304Z,60.76
2023-05-05T00:40:23.185Z,60.55
2023-05-05T00:40:23.381Z,60.55
2023-05-05T00:40:23.661Z,60.55
2023-05-05T00:40:23.824Z,60.55
2023-05-05T00:40:24.156Z,60.55
2023-05-05T00:40:24.370Z,60.55
2023-05-05T00:41:23.273Z,60.76
2023-05-05T00:41:23.486Z,60.76
2023-05-05T00:41:23.691Z,60.76
2023-05-05T00:41:23.901Z,60.76
2023-05-05T00:41:24.262Z,60.76
2023-05-05T00:41:24.469Z,60.76
2023-05-05T00:43:37.474Z,60.76
2023-05-05T00:43:37.720Z,60.76
2023-05-05T00:43:37.902Z,60.76
2023-05-05T00:43:38.114Z,60.76
2023-05-05T00:43:38.304Z,60.76
2023-05-05T00:43:38.548Z,60.76
2023-05-05T00:44:37.583Z,60.55
2023-05-05T00:44:37.786Z,60.66
2023-05-05T00:44:37.992Z,60.55
2023-05-05T00:44:38.222Z,60.55
2023-05-05T00:44:38.426Z,60.55
2023-05-05T00:44:38.624Z,60.55
2023-05-05T00:45:37.656Z,60.76
2023-05-05T00:45:37.859Z,60.76
2023-05-05T00:45:38.072Z,60.76
2023-05-05T00:45:38.283Z,60.76
2023-05-05T00:45:38.488Z,60.76
2023-05-05T00:45:38.698Z,60.76
2023-05-05T00:46:37.769Z,60.76
2023-05-05T00:46:37.943Z,60.76
2023-05-05T00:46:38.170Z,60.76
2023-05-05T00:46:38.370Z,60.76
2023-05-05T00:46:38.597Z,60.76
2023-05-05T00:46:38.809Z,60.76
2023-05-05T00:47:37.906Z,60.76
2023-05-05T00:47:38.114Z,60.76
2023-05-05T00:47:38.317Z,60.76
2023-05-05T00:47:38.551Z,60.76
2023-05-05T00:47:38.749Z,60.76
2023-05-05T00:47:38.983Z,60.76
2023-05-05T00:48:37.980Z,60.99
2023-05-05T00:48:38.190Z,60.96
2023-05-05T00:48:38.397Z,60.96
2023-05-05T00:48:38.607Z,60.99
2023-05-05T00:48:38.821Z,60.99
2023-05-05T00:48:39.024Z,60.96
2023-05-05T00:49:38.200Z,61.27
2023-05-05T00:49:38.486Z,61.37
2023-05-05T00:49:38.705Z,61.37
2023-05-05T00:49:38.954Z,61.37
2023-05-05T00:49:39.155Z,61.37
2023-05-05T00:49:39.417Z,61.37
2023-05-05T00:50:38.170Z,61.57
2023-05-05T00:50:38.586Z,61.57
2023-05-05T00:50:38.764Z,61.57
2023-05-05T00:50:38.976Z,61.57
2023-05-05T00:50:39.179Z,61.57
2023-05-05T00:50:39.390Z,61.57
2023-05-05T00:51:38.301Z,61.50
2023-05-05T00:51:38.658Z,61.50
2023-05-05T00:51:38.872Z,61.50
2023-05-05T00:51:39.079Z,61.50
2023-05-05T00:51:39.296Z,61.50
2023-05-05T00:51:39.494Z,61.50
2023-05-05T00:52:38.405Z,61.60
2023-05-05T00:52:38.739Z,61.60
2023-05-05T00:52:38.949Z,61.60
2023-05-05T00:52:39.159Z,61.60
2023-05-05T00:52:39.371Z,61.50
2023-05-05T00:52:39.576Z,61.50
2023-05-05T00:53:38.494Z,61.19
2023-05-05T00:53:38.877Z,61.30
2023-05-05T00:53:39.081Z,61.30
2023-05-05T00:53:39.342Z,61.30
2023-05-05T00:53:39.512Z,61.30
2023-05-05T00:53:39.741Z,61.30
2023-05-05T00:54:38.608Z,61.60
2023-05-05T00:54:38.957Z,61.60
2023-05-05T00:54:39.169Z,61.60
2023-05-05T00:54:39.383Z,61.60
2023-05-05T00:54:39.593Z,61.60
2023-05-05T00:54:39.797Z,61.60
2023-05-05T00:55:38.699Z,61.60
2023-05-05T00:55:39.045Z,61.60
2023-05-05T00:55:39.251Z,61.60
2023-05-05T00:55:39.456Z,61.60
2023-05-05T00:55:39.669Z,61.60
2023-05-05T00:55:39.885Z,61.60
2023-05-05T00:56:38.829Z,61.71
2023-05-05T00:56:39.155Z,61.71
2023-05-05T00:56:39.366Z,61.71
2023-05-05T00:56:39.575Z,61.71
2023-05-05T00:56:39.790Z,61.71
2023-05-05T00:56:39.996Z,61.71
2023-05-05T00:57:38.911Z,61.50
2023-05-05T00:57:39.258Z,61.50
2023-05-05T00:57:39.469Z,61.50
2023-05-05T00:57:39.681Z,61.50
2023-05-05T00:57:39.977Z,61.50
2023-05-05T00:57:40.254Z,61.50
2023-05-05T00:58:38.954Z,60.99
2023-05-05T00:58:39.285Z,60.99
2023-05-05T00:58:39.510Z,60.99
2023-05-05T00:58:39.708Z,60.89
2023-05-05T00:58:39.918Z,60.99
2023-05-05T00:58:40.276Z,60.99
2023-05-05T00:59:39.050Z,60.69
2023-05-05T00:59:39.388Z,60.69
2023-05-05T00:59:39.597Z,60.69
2023-05-05T00:59:39.807Z,60.69
2023-05-05T00:59:40.030Z,60.69
2023-05-05T00:59:40.373Z,60.69
2023-05-05T01:00:39.097Z,60.58
2023-05-05T01:00:39.454Z,60.58
2023-05-05T01:00:39.697Z,60.58
2023-05-05T01:00:39.896Z,60.58
2023-05-05T01:00:40.101Z,60.58
2023-05-05T01:00:40.453Z,60.58
2023-05-05T01:01:39.257Z,60.48
2023-05-05T01:01:39.628Z,60.48
2023-05-05T01:01:39.860Z,60.48
2023-05-05T01:01:40.055Z,60.48
2023-05-05T01:01:40.275Z,60.48
2023-05-05T01:01:40.532Z,60.48
2023-05-05T01:02:39.433Z,60.99
2023-05-05T01:02:39.754Z,60.99
2023-05-05T01:02:40.083Z,60.99
2023-05-05T01:02:40.389Z,60.99
2023-05-05T01:02:40.791Z,60.99
2023-05-05T01:02:41.071Z,60.99
2023-05-05T01:03:39.479Z,61.40
2023-05-05T01:03:39.835Z,61.40
2023-05-05T01:03:40.213Z,61.40
2023-05-05T01:03:40.618Z,61.40
2023-05-05T01:03:40.894Z,61.40
2023-05-05T01:03:41.148Z,61.40
2023-05-05T01:04:39.480Z,61.19
2023-05-05T01:04:39.837Z,61.19
2023-05-05T01:04:40.198Z,61.19
2023-05-05T01:04:40.551Z,61.19
2023-05-05T01:04:40.912Z,61.19
2023-05-05T01:04:41.121Z,61.19
2023-05-05T01:05:39.597Z,61.40
2023-05-05T01:05:39.912Z,61.40
2023-05-05T01:05:40.280Z,61.40
2023-05-05T01:05:40.632Z,61.40
2023-05-05T01:05:40.987Z,61.40
2023-05-05T01:05:41.188Z,61.40
2023-05-05T01:06:39.607Z,61.40
2023-05-05T01:06:39.957Z,61.40
2023-05-05T01:06:40.305Z,61.40
2023-05-05T01:06:40.673Z,61.40
2023-05-05T01:06:41.025Z,61.40
2023-05-05T01:06:41.231Z,61.40
2023-05-05T01:07:39.727Z,61.71
2023-05-05T01:07:40.086Z,61.71
2023-05-05T01:07:40.425Z,61.71
2023-05-05T01:07:40.782Z,61.71
2023-05-05T01:07:41.123Z,61.71
2023-05-05T01:07:41.349Z,61.71
2023-05-05T01:08:39.828Z,61.30
2023-05-05T01:08:40.169Z,61.30
2023-05-05T01:08:40.523Z,61.30
2023-05-05T01:08:40.978Z,61.30
2023-05-05T01:08:41.220Z,61.30
2023-05-05T01:08:41.425Z,61.30
2023-05-05T01:09:39.853Z,61.40
2023-05-05T01:09:40.202Z,61.40
2023-05-05T01:09:40.546Z,61.40
2023-05-05T01:09:41.051Z,61.50
2023-05-05T01:09:41.262Z,61.50
2023-05-05T01:09:41.458Z,61.40
2023-05-05T01:10:40.004Z,61.91
2023-05-05T01:10:40.207Z,61.91
2023-05-05T01:10:40.568Z,61.91
2023-05-05T01:10:41.086Z,61.91
2023-05-05T01:10:41.292Z,61.91
2023-05-05T01:10:41.517Z,61.91
2023-05-05T01:11:40.095Z,61.71
2023-05-05T01:11:40.306Z,61.71
2023-05-05T01:11:40.659Z,61.71
2023-05-05T01:11:41.170Z,61.71
2023-05-05T01:11:41.376Z,61.71
2023-05-05T01:11:41.598Z,61.71
2023-05-05T01:12:40.121Z,61.60
2023-05-05T01:12:40.324Z,61.60
2023-05-05T01:12:40.713Z,61.60
2023-05-05T01:12:41.194Z,61.60
2023-05-05T01:12:41.402Z,61.60
2023-05-05T01:12:41.742Z,61.60
2023-05-05T01:13:40.264Z,61.71
2023-05-05T01:13:40.473Z,61.71
2023-05-05T01:13:40.689Z,61.71
2023-05-05T01:13:41.190Z,61.71
2023-05-05T01:13:41.401Z,61.71
2023-05-05T01:13:41.758Z,61.71
2023-05-05T01:14:40.374Z,60.99
2023-05-05T01:14:40.580Z,60.99
2023-05-05T01:14:40.836Z,60.99
2023-05-05T01:14:41.313Z,60.99
2023-05-05T01:14:41.518Z,60.99
2023-05-05T01:14:41.871Z,60.99
2023-05-05T01:15:40.372Z,61.30
2023-05-05T01:15:40.726Z,61.30
2023-05-05T01:15:40.932Z,61.30
2023-05-05T01:15:41.410Z,61.30
2023-05-05T01:15:41.632Z,61.30
2023-05-05T01:15:41.968Z,61.30
2023-05-05T01:16:40.553Z,61.71
2023-05-05T01:16:40.803Z,61.71
2023-05-05T01:16:41.100Z,61.71
2023-05-05T01:16:41.523Z,61.71
2023-05-05T01:16:41.892Z,61.71
2023-05-05T01:16:42.141Z,61.71
2023-05-05T01:17:40.619Z,61.30
2023-05-05T01:17:40.868Z,61.30
2023-05-05T01:17:41.087Z,61.30
2023-05-05T01:17:41.577Z,61.30
2023-05-05T01:17:41.966Z,61.30
2023-05-05T01:17:42.217Z,61.30
2023-05-05T01:18:40.625Z,61.30
2023-05-05T01:18:40.836Z,61.30
2023-05-05T01:18:41.054Z,61.30
2023-05-05T01:18:41.678Z,61.30
2023-05-05T01:18:42.016Z,61.30
2023-05-05T01:18:42.232Z,61.30
2023-05-05T01:19:40.762Z,61.09
2023-05-05T01:19:40.971Z,61.09
2023-05-05T01:19:41.184Z,61.09
2023-05-05T01:19:41.788Z,61.09
2023-05-05T01:19:42.139Z,61.09
2023-05-05T01:19:42.357Z,61.09
2023-05-05T01:20:40.795Z,61.91
2023-05-05T01:20:40.976Z,61.91
2023-05-05T01:20:41.193Z,61.91
2023-05-05T01:20:41.819Z,61.91
2023-05-05T01:20:42.164Z,61.91
2023-05-05T01:20:42.376Z,61.91
2023-05-05T01:21:40.788Z,62.11
2023-05-05T01:21:41.001Z,62.11
2023-05-05T01:21:41.236Z,62.11
2023-05-05T01:21:41.832Z,62.11
2023-05-05T01:21:42.163Z,62.11
2023-05-05T01:21:42.377Z,62.11
2023-05-05T01:22:40.816Z,62.01
2023-05-05T01:22:41.028Z,62.04
2023-05-05T01:22:41.242Z,62.01
2023-05-05T01:22:41.848Z,62.14
2023-05-05T01:22:42.201Z,62.04
2023-05-05T01:22:42.409Z,62.04
2023-05-05T01:23:40.874Z,62.14
2023-05-05T01:23:41.076Z,62.14
2023-05-05T01:23:41.291Z,62.14
2023-05-05T01:23:41.911Z,62.14
2023-05-05T01:23:42.258Z,62.14
2023-05-05T01:23:42.472Z,62.14
2023-05-05T01:24:40.978Z,61.83
2023-05-05T01:24:41.194Z,61.83
2023-05-05T01:24:41.395Z,61.83
2023-05-05T01:24:42.023Z,61.83
2023-05-05T01:24:42.373Z,61.83
2023-05-05T01:24:42.584Z,61.83
2023-05-05T01:25:41.104Z,61.73
2023-05-05T01:25:41.326Z,61.73
2023-05-05T01:25:41.520Z,61.73
2023-05-05T01:25:42.164Z,61.73
2023-05-05T01:25:42.530Z,61.73
2023-05-05T01:25:42.737Z,61.73
2023-05-05T01:26:41.228Z,61.83
2023-05-05T01:26:41.439Z,61.83
2023-05-05T01:26:41.653Z,61.83
2023-05-05T01:26:42.270Z,61.83
2023-05-05T01:26:42.652Z,61.83
2023-05-05T01:26:42.863Z,61.83
2023-05-05T01:27:41.318Z,61.83
2023-05-05T01:27:41.518Z,61.83
2023-05-05T01:27:41.729Z,61.83
2023-05-05T01:27:42.357Z,61.83
2023-05-05T01:27:42.711Z,61.94
2023-05-05T01:27:42.924Z,61.83
2023-05-05T01:28:41.313Z,61.94
2023-05-05T01:28:41.528Z,61.94
2023-05-05T01:28:41.740Z,61.94
2023-05-05T01:28:42.380Z,61.94
2023-05-05T01:28:42.736Z,61.94
2023-05-05T01:28:42.936Z,61.94
2023-05-05T01:29:41.458Z,62.24
2023-05-05T01:29:41.667Z,62.35
2023-05-05T01:29:41.873Z,62.24
2023-05-05T01:29:42.496Z,62.24
2023-05-05T01:29:42.840Z,62.35
2023-05-05T01:29:43.055Z,62.35
2023-05-05T01:30:41.532Z,62.45
2023-05-05T01:30:41.744Z,62.45
2023-05-05T01:30:41.948Z,62.45
2023-05-05T01:30:42.580Z,62.45
2023-05-05T01:30:42.938Z,62.45
2023-05-05T01:30:43.155Z,62.45
2023-05-05T01:31:41.618Z,62.55
2023-05-05T01:31:41.948Z,62.55
2023-05-05T01:31:42.230Z,62.55
2023-05-05T01:31:42.735Z,62.55
2023-05-05T01:31:43.080Z,62.55
2023-05-05T01:31:43.338Z,62.55
2023-05-05T01:32:41.752Z,62.45
2023-05-05T01:32:41.965Z,62.45
2023-05-05T01:32:42.333Z,62.45
2023-05-05T01:32:42.820Z,62.45
2023-05-05T01:32:43.160Z,62.45
2023-05-05T01:32:43.429Z,62.45
2023-05-05T01:33:41.725Z,62.65
2023-05-05T01:33:41.965Z,62.65
2023-05-05T01:33:42.439Z,62.65
2023-05-05T01:33:42.796Z,62.65
2023-05-05T01:33:43.277Z,62.65
2023-05-05T01:33:43.502Z,62.65
2023-05-05T01:34:41.884Z,62.55
2023-05-05T01:34:42.106Z,62.55
2023-05-05T01:34:42.432Z,62.55
2023-05-05T01:34:42.807Z,62.45
2023-05-05T01:34:43.295Z,62.55
2023-05-05T01:34:43.499Z,62.45
2023-05-05T01:35:42.002Z,62.35
2023-05-05T01:35:42.210Z,62.35
2023-05-05T01:35:42.553Z,62.45
2023-05-05T01:35:42.895Z,62.35
2023-05-05T01:35:43.388Z,62.45
2023-05-05T01:35:43.598Z,62.45
2023-05-05T01:36:42.066Z,62.45
2023-05-05T01:36:42.350Z,62.45
2023-05-05T01:36:42.590Z,62.45
2023-05-05T01:36:42.939Z,62.45
2023-05-05T01:36:43.455Z,62.45
2023-05-05T01:36:43.666Z,62.45
2023-05-05T01:37:42.172Z,62.35
2023-05-05T01:37:42.337Z,62.35
2023-05-05T01:37:42.683Z,62.45
2023-05-05T01:37:43.032Z,62.35
2023-05-05T01:37:43.521Z,62.35
2023-05-05T01:37:43.720Z,62.35
2023-05-05T01:38:42.219Z,62.55
2023-05-05T01:38:42.419Z,62.55
2023-05-05T01:38:42.758Z,62.55
2023-05-05T01:38:43.110Z,62.55
2023-05-05T01:38:43.650Z,62.55
2023-05-05T01:38:43.859Z,62.55
2023-05-05T01:39:42.248Z,62.76
2023-05-05T01:39:42.456Z,62.88
2023-05-05T01:39:42.805Z,62.78
2023-05-05T01:39:43.165Z,62.88
2023-05-05T01:39:43.651Z,62.88
2023-05-05T01:39:43.867Z,62.78
2023-05-05T01:40:42.341Z,62.37
2023-05-05T01:40:42.586Z,62.37
2023-05-05T01:40:42.905Z,62.37
2023-05-05T01:40:43.244Z,62.37
2023-05-05T01:40:43.732Z,62.37
2023-05-05T01:40:43.946Z,62.37
2023-05-05T01:41:42.414Z,62.48
2023-05-05T01:41:42.634Z,62.48
2023-05-05T01:41:42.970Z,62.48
2023-05-05T01:41:43.345Z,62.48
2023-05-05T01:41:43.847Z,62.48
2023-05-05T01:41:44.053Z,62.48
2023-05-05T01:42:42.568Z,62.68
2023-05-05T01:42:42.754Z,62.68
2023-05-05T01:42:43.122Z,62.68
2023-05-05T01:42:43.494Z,62.68
2023-05-05T01:42:43.890Z,62.68
2023-05-05T01:42:44.097Z,62.68
2023-05-05T01:43:42.628Z,62.48
2023-05-05T01:43:42.834Z,62.48
2023-05-05T01:43:43.181Z,62.48
2023-05-05T01:43:43.517Z,62.48
2023-05-05T01:43:43.884Z,62.48
2023-05-05T01:43:44.095Z,62.48
2023-05-05T01:44:42.760Z,62.58
2023-05-05T01:44:42.973Z,62.58
2023-05-05T01:44:43.182Z,62.58
2023-05-05T01:44:43.540Z,62.58
2023-05-05T01:44:44.014Z,62.58
2023-05-05T01:44:44.232Z,62.58
2023-05-05T01:45:42.899Z,62.58
2023-05-05T01:45:43.089Z,62.58
2023-05-05T01:45:43.314Z,62.58
2023-05-05T01:45:43.666Z,62.58
2023-05-05T01:45:44.151Z,62.58
2023-05-05T01:45:44.412Z,62.58
2023-05-05T01:46:42.941Z,62.99
2023-05-05T01:46:43.138Z,62.99
2023-05-05T01:46:43.364Z,62.99
2023-05-05T01:46:43.729Z,62.99
2023-05-05T01:46:44.202Z,63.09
2023-05-05T01:46:44.410Z,62.99
2023-05-05T01:48:23.053Z,63.32
2023-05-05T01:48:23.298Z,63.32
2023-05-05T01:48:23.510Z,63.32
2023-05-05T01:48:23.735Z,63.29
2023-05-05T01:48:23.976Z,63.29
2023-05-05T01:48:24.175Z,63.29
2023-05-05T01:49:23.124Z,63.12
2023-05-05T01:49:23.329Z,63.12
2023-05-05T01:49:23.537Z,63.12
2023-05-05T01:49:23.749Z,63.09
2023-05-05T01:49:23.957Z,63.12
2023-05-05T01:49:24.166Z,63.09
2023-05-05T01:50:23.203Z,63.43
2023-05-05T01:50:23.408Z,63.43
2023-05-05T01:50:23.614Z,63.43
2023-05-05T01:50:23.825Z,63.43
2023-05-05T01:50:24.032Z,63.43
2023-05-05T01:50:24.236Z,63.43
2023-05-05T01:51:23.317Z,63.43
2023-05-05T01:51:23.525Z,63.32
2023-05-05T01:51:23.732Z,63.32
2023-05-05T01:51:23.944Z,63.32
2023-05-05T01:51:24.156Z,63.32
2023-05-05T01:51:24.375Z,63.43
2023-05-05T01:52:23.348Z,63.32
2023-05-05T01:52:23.559Z,63.22
2023-05-05T01:52:23.772Z,63.32
2023-05-05T01:52:23.982Z,63.32
2023-05-05T01:52:24.191Z,63.32
2023-05-05T01:52:24.400Z,63.32
2023-05-05T01:53:23.427Z,63.22
2023-05-05T01:53:23.623Z,63.22
2023-05-05T01:53:23.836Z,63.22
2023-05-05T01:53:24.057Z,63.22
2023-05-05T01:53:24.266Z,63.22
2023-05-05T01:53:24.476Z,63.22
2023-05-05T01:54:28.451Z,63.12
2023-05-05T01:54:28.658Z,63.12
2023-05-05T01:54:28.871Z,63.09
2023-05-05T01:54:29.091Z,63.09
2023-05-05T01:54:29.306Z,63.12
2023-05-05T01:54:29.504Z,63.09
2023-05-05T01:55:28.592Z,62.58
2023-05-05T01:55:28.794Z,62.58
2023-05-05T01:55:29.005Z,62.68
2023-05-05T01:55:29.212Z,62.58
2023-05-05T01:55:29.425Z,62.61
2023-05-05T01:55:29.639Z,62.58
2023-05-05T01:56:28.604Z,62.99
2023-05-05T01:56:28.804Z,62.99
2023-05-05T01:56:29.016Z,62.99
2023-05-05T01:56:29.220Z,62.99
2023-05-05T01:56:29.436Z,62.99
2023-05-05T01:56:29.644Z,62.99
2023-05-05T01:57:28.638Z,62.88
2023-05-05T01:57:28.871Z,62.88
2023-05-05T01:57:29.058Z,62.88
2023-05-05T01:57:29.265Z,62.88
2023-05-05T01:57:29.473Z,62.88
2023-05-05T01:57:29.686Z,62.88
2023-05-05T01:58:28.733Z,62.99
2023-05-05T01:58:28.950Z,62.99
2023-05-05T01:58:29.155Z,62.99
2023-05-05T01:58:29.391Z,62.99
2023-05-05T01:58:29.682Z,62.99
2023-05-05T01:58:29.898Z,62.99
2023-05-05T01:59:28.778Z,63.09
2023-05-05T01:59:28.986Z,63.12
2023-05-05T01:59:29.195Z,63.09
2023-05-05T01:59:29.408Z,63.12
2023-05-05T01:59:29.750Z,63.09
2023-05-05T01:59:29.963Z,63.09
2023-05-05T02:00:51.218Z,63.12
2023-05-05T02:00:51.426Z,63.12
2023-05-05T02:00:51.633Z,63.12
2023-05-05T02:00:51.884Z,63.12
2023-05-05T02:00:52.061Z,63.12
2023-05-05T02:00:52.328Z,63.12
2023-05-05T02:01:51.315Z,62.92
2023-05-05T02:01:51.522Z,62.92
2023-05-05T02:01:51.728Z,62.92
2023-05-05T02:01:51.945Z,63.02
2023-05-05T02:01:52.165Z,62.92
2023-05-05T02:01:52.356Z,63.02
2023-05-05T02:02:51.414Z,62.92
2023-05-05T02:02:51.691Z,62.92
2023-05-05T02:02:51.932Z,62.92
2023-05-05T02:02:52.185Z,62.92
2023-05-05T02:02:52.469Z,62.92
2023-05-05T02:02:52.750Z,62.92
2023-05-05T02:03:51.426Z,62.92
2023-05-05T02:03:51.629Z,62.92
2023-05-05T02:03:51.967Z,62.92
2023-05-05T02:03:52.177Z,62.92
2023-05-05T02:03:52.527Z,62.92
2023-05-05T02:03:52.738Z,62.92
2023-05-05T02:04:51.466Z,63.02
2023-05-05T02:04:51.681Z,63.02
2023-05-05T02:04:52.040Z,63.02
2023-05-05T02:04:52.261Z,63.02
2023-05-05T02:04:52.609Z,63.02
2023-05-05T02:04:52.814Z,63.02
2023-05-05T02:05:51.468Z,63.12
2023-05-05T02:05:51.677Z,63.12
2023-05-05T02:05:52.165Z,63.12
2023-05-05T02:05:52.374Z,63.12
2023-05-05T02:05:52.710Z,63.12
2023-05-05T02:05:52.917Z,63.12
2023-05-05T02:06:51.566Z,63.22
2023-05-05T02:06:51.775Z,63.22
2023-05-05T02:06:52.239Z,63.22
2023-05-05T02:06:52.447Z,63.22
2023-05-05T02:06:52.808Z,63.22
2023-05-05T02:06:53.036Z,63.12
2023-05-05T02:07:51.663Z,62.92
2023-05-05T02:07:51.870Z,62.92
2023-05-05T02:07:52.365Z,62.92
2023-05-05T02:07:52.566Z,62.92
2023-05-05T02:07:52.908Z,62.92
2023-05-05T02:07:53.114Z,62.92
2023-05-05T02:08:51.787Z,62.81
2023-05-05T02:08:51.998Z,62.81
2023-05-05T02:08:52.470Z,62.81
2023-05-05T02:08:52.681Z,62.81
2023-05-05T02:08:53.059Z,62.81
2023-05-05T02:08:53.245Z,62.81
2023-05-05T02:09:51.841Z,62.68
2023-05-05T02:09:52.050Z,62.61
2023-05-05T02:09:52.540Z,62.58
2023-05-05T02:09:52.762Z,62.61
2023-05-05T02:09:53.098Z,62.58
2023-05-05T02:09:53.301Z,62.61
2023-05-05T02:10:51.852Z,62.58
2023-05-05T02:10:52.069Z,62.58
2023-05-05T02:10:52.549Z,62.58
2023-05-05T02:10:52.777Z,62.58
2023-05-05T02:10:53.113Z,62.58
2023-05-05T02:10:53.324Z,62.61
2023-05-05T02:11:51.981Z,61.99
2023-05-05T02:11:52.190Z,61.99
2023-05-05T02:11:52.732Z,61.97
2023-05-05T02:11:52.888Z,61.99
2023-05-05T02:11:53.236Z,61.99
2023-05-05T02:11:53.439Z,61.97
2023-05-05T02:12:52.136Z,62.30
2023-05-05T02:12:52.369Z,62.30
2023-05-05T02:12:52.740Z,62.30
2023-05-05T02:12:53.038Z,62.30
2023-05-05T02:12:53.292Z,62.30
2023-05-05T02:12:53.476Z,62.30
2023-05-05T02:13:52.228Z,62.20
2023-05-05T02:13:52.440Z,62.20
2023-05-05T02:13:52.766Z,62.20
2023-05-05T02:13:52.970Z,62.20
2023-05-05T02:13:53.345Z,62.20